Aeroporto :
LOGIN :

Iscrizione | Disclaimer

   EN    FR    IT 

 










Sommario :    VFR   VFR Marginale   IFR   IFR Intensivo   IFR Molto Intensivo
Visibilità : 
Base nubi : 
>= 8 km
>= 3000ft
5 / 8 km
1000 / 3000 ft
1500m / 5 km
500 / 1000 ft
800 / 1500m
200 / 500 ft
< 800m
< 200 ft
Simboli :   Temporali  Nebbia  Neve Forte  Precipitazioni Forti  Vento > 20 kt
SIGMETs :   Varie  Temporali  Ghiacco  Turbolenza  Onda orograficha  Ceneri Vulcaniche






- Altitudine del aeroporto : 83 ft
- Codice IATA : LHR


EGLL - London Heathrow

ULTIMO METAR :
  • 061550Z AUTO 26019KT 9999 -RA FEW023/// BKN030/// BKN039/// //////CB 11/09 Q1002 TEMPO SHRA

METARs OBSOLETI :
  • 061520Z AUTO 24012KT 8000 -RA FEW027/// SCT034/// BKN042/// //////CB 11/10 Q1002 TEMPO 4000 +SHRA BKN014
  • 061450Z AUTO 24015KT 4900 -RA SCT022 BKN028 BKN038 12/10 Q1002 BECMG 9999 NSW
  • 061420Z AUTO 25012KT 9999 FEW028 SCT036 BKN047 13/10 Q1002 NOSIG
  • 061350Z AUTO 25018KT 9999 FEW026 BKN030 OVC046 13/09 Q1002
  • 061320Z AUTO 25018KT 9999 FEW031 BKN038 13/10 Q1003

TAF TAF EGLL
Valido dal 06 a 12 ore il 07 a 18 ore UTC


061058Z 0612/0718 23014KT 9999 BKN014
BECMG 0612/0615 SCT030
TEMPO 0612/0614 23015G25KT 4000 RADZ
TEMPO 0614/0619 25018G28KT 7000 SHRA
PROB30
TEMPO 0615/0618 4000 +SHRA BKN012



MetMap, La meteo Aeronautica in un colpo d'occhio ! - Copyright ORBIFLY Dicembre 2007 - Disclaimer

ORBIFLY MET'MAP TEAM :

Programmazione e sviluppo : Alexandra Zaïnal
Concezione : Baudouin d'Aumeries
Aiuto per la programmazione : Marc-Olivier Méhu
Supporto tecnico e logistico : Manuel Goepfert
Aiuto per la traduzione : Arnaldo La Scala

Contatto : metmap@orbifly.com




FONTI E CREDITI :

   NOAA